createdAt,value
2019-03-11T00:03:45.771Z,100.00
2019-03-11T00:06:35.487Z,100.00
2019-03-11T00:09:17.649Z,100.00
2019-03-11T00:12:07.435Z,100.00
2019-03-11T00:14:49.719Z,100.00
2019-03-11T00:17:39.571Z,100.00
2019-03-11T00:20:22.743Z,100.00
2019-03-11T00:23:12.515Z,100.00
2019-03-11T00:25:57.039Z,100.00
2019-03-11T00:28:46.799Z,100.00
2019-03-11T00:37:41.916Z,100.00
2019-03-11T00:40:31.661Z,100.00
2019-03-11T00:43:14.095Z,100.00
2019-03-11T00:46:03.839Z,100.00
2019-03-11T00:49:06.060Z,100.00
2019-03-11T00:51:48.721Z,100.00
2019-03-11T00:54:38.626Z,100.00
2019-03-11T00:57:28.411Z,100.00
2019-03-11T01:00:53.263Z,100.00
2019-03-11T01:03:36.016Z,100.00
2019-03-11T01:06:25.774Z,100.00
2019-03-11T01:09:15.910Z,100.00
2019-03-11T01:12:05.808Z,100.00
2019-03-11T01:14:55.692Z,100.00
2019-03-11T01:17:45.471Z,100.00
2019-03-11T01:20:35.209Z,100.00
2019-03-11T01:23:24.962Z,100.00
2019-03-11T01:26:14.806Z,100.00
2019-03-11T01:29:23.839Z,100.00
2019-03-11T01:32:13.741Z,100.00
2019-03-11T01:35:03.623Z,100.00
2019-03-11T01:37:53.595Z,100.00
2019-03-11T01:40:43.373Z,100.00
2019-03-11T01:43:33.102Z,100.00
2019-03-11T01:46:22.902Z,100.00
2019-03-11T01:49:05.690Z,100.00
2019-03-11T01:51:55.446Z,100.00
2019-03-11T01:54:45.580Z,100.00
2019-03-11T01:57:54.510Z,100.00
2019-03-11T02:00:44.374Z,98.83
2019-03-11T02:03:34.130Z,98.67
2019-03-11T02:06:24.080Z,97.30
2019-03-11T02:12:08.247Z,99.21
2019-03-11T02:17:53.156Z,99.10
2019-03-11T02:20:42.998Z,98.44
2019-03-11T02:23:32.934Z,96.23
2019-03-11T02:26:22.678Z,96.43
2019-03-11T02:29:12.498Z,93.77
2019-03-11T02:32:02.346Z,93.94
2019-03-11T02:34:52.081Z,90.54
2019-03-11T02:37:41.890Z,92.22
2019-03-11T02:40:24.146Z,90.31
2019-03-11T02:48:36.922Z,88.07
2019-03-11T02:51:28.303Z,88.17
2019-03-11T02:54:17.998Z,89.20
2019-03-11T02:57:07.754Z,87.23
2019-03-11T02:59:50.260Z,89.38
2019-03-11T03:02:58.900Z,87.36
2019-03-11T03:05:47.307Z,85.29
2019-03-11T03:08:37.070Z,85.07
2019-03-11T03:11:26.866Z,84.56
2019-03-11T03:14:16.610Z,87.65
2019-03-11T03:17:06.333Z,90.03
2019-03-11T03:19:49.302Z,89.15
2019-03-11T03:22:39.089Z,91.39
2019-03-11T03:28:45.761Z,91.02
2019-03-11T03:31:35.513Z,92.00
2019-03-11T03:34:18.635Z,91.03
2019-03-11T03:37:08.759Z,91.35
2019-03-11T03:39:50.844Z,91.92
2019-03-11T03:42:40.623Z,93.02
2019-03-11T03:45:28.306Z,93.28
2019-03-11T03:48:18.106Z,91.44
2019-03-11T03:51:01.173Z,92.67
2019-03-11T03:53:50.906Z,93.00
2019-03-11T03:56:33.351Z,93.20
2019-03-11T03:59:23.098Z,94.44
2019-03-11T04:02:12.856Z,94.05
2019-03-11T04:05:02.721Z,95.24
2019-03-11T04:07:52.459Z,96.99
2019-03-11T04:10:42.222Z,97.58
2019-03-11T04:13:31.990Z,97.16
2019-03-11T04:16:21.750Z,98.42
2019-03-11T04:19:11.496Z,100.00
2019-03-11T04:25:19.136Z,100.00
2019-03-11T04:28:08.835Z,100.00
2019-03-11T04:30:51.038Z,100.00
2019-03-11T04:36:25.637Z,100.00
2019-03-11T04:39:15.579Z,100.00
2019-03-11T04:41:57.952Z,100.00
2019-03-11T04:44:47.795Z,100.00
2019-03-11T04:47:30.476Z,100.00
2019-03-11T04:50:20.292Z,99.78
2019-03-11T04:53:02.660Z,100.00
2019-03-11T05:01:19.080Z,100.00
2019-03-11T05:04:08.821Z,100.00
2019-03-11T05:06:51.555Z,100.00
2019-03-11T05:09:41.360Z,100.00
2019-03-11T05:12:43.981Z,100.00
2019-03-11T05:15:26.382Z,100.00
2019-03-11T05:18:16.129Z,100.00
2019-03-11T05:20:58.622Z,100.00
2019-03-11T05:26:44.374Z,100.00
2019-03-11T05:29:27.021Z,100.00
2019-03-11T05:35:11.778Z,100.00
2019-03-11T05:38:01.628Z,100.00
2019-03-11T05:44:15.984Z,100.00
2019-03-11T05:46:58.465Z,100.00
2019-03-11T05:49:48.216Z,100.00
2019-03-11T05:52:37.934Z,100.00
2019-03-11T05:55:20.952Z,100.00
2019-03-11T05:58:05.425Z,100.00
2019-03-11T06:00:47.848Z,100.00
2019-03-11T06:03:37.620Z,100.00
2019-03-11T06:06:27.626Z,100.00
2019-03-11T06:09:17.341Z,100.00
2019-03-11T06:12:00.422Z,100.00
2019-03-11T06:14:50.110Z,100.00
2019-03-11T06:17:32.711Z,100.00
2019-03-11T06:20:35.834Z,100.00
2019-03-11T06:23:18.544Z,100.00
2019-03-11T06:26:00.688Z,100.00
2019-03-11T06:28:50.511Z,100.00
2019-03-11T06:31:40.510Z,100.00
2019-03-11T06:37:36.151Z,100.00
2019-03-11T06:40:19.164Z,100.00
2019-03-11T06:46:19.429Z,100.00
2019-03-11T06:49:02.389Z,100.00
2019-03-11T06:51:52.129Z,100.00
2019-03-11T06:54:42.635Z,100.00
2019-03-11T06:57:32.485Z,100.00
2019-03-11T07:00:22.386Z,100.00
2019-03-11T07:03:12.151Z,100.00
2019-03-11T07:15:03.068Z,100.00
2019-03-11T07:17:45.167Z,100.00
2019-03-11T07:20:35.091Z,100.00
2019-03-11T07:23:24.985Z,100.00
2019-03-11T07:26:14.999Z,100.00
2019-03-11T07:29:16.902Z,100.00
2019-03-11T07:31:59.151Z,100.00
2019-03-11T07:35:08.487Z,100.00
2019-03-11T07:37:46.614Z,100.00
2019-03-11T07:40:36.599Z,100.00
2019-03-11T07:43:38.752Z,100.00
2019-03-11T07:46:21.205Z,100.00
2019-03-11T07:52:05.663Z,100.00
2019-03-11T07:54:55.483Z,100.00
2019-03-11T07:57:45.259Z,100.00
2019-03-11T08:03:29.771Z,100.00
2019-03-11T08:06:19.682Z,100.00
2019-03-11T08:09:09.455Z,100.00
2019-03-11T08:11:59.264Z,100.00
2019-03-11T08:14:48.970Z,100.00
2019-03-11T08:17:32.100Z,100.00
2019-03-11T08:20:15.203Z,100.00
2019-03-11T08:23:04.961Z,100.00
2019-03-11T08:25:49.313Z,100.00
2019-03-11T08:28:39.043Z,100.00
2019-03-11T08:31:21.407Z,100.00
2019-03-11T08:34:11.227Z,100.00
2019-03-11T08:36:53.195Z,100.00
2019-03-11T08:39:42.965Z,100.00
2019-03-11T08:42:25.646Z,100.00
2019-03-11T08:45:15.454Z,100.00
2019-03-11T08:47:58.346Z,100.00
2019-03-11T08:50:48.106Z,100.00
2019-03-11T08:53:31.834Z,100.00
2019-03-11T08:59:17.230Z,100.00
2019-03-11T09:02:07.152Z,100.00
2019-03-11T09:05:15.976Z,100.00
2019-03-11T09:08:17.658Z,100.00
2019-03-11T09:11:00.403Z,100.00
2019-03-11T09:13:50.195Z,100.00
2019-03-11T09:16:51.674Z,100.00
2019-03-11T09:22:38.813Z,100.00
2019-03-11T09:25:12.474Z,100.00
2019-03-11T09:28:04.516Z,100.00
2019-03-11T09:30:54.198Z,100.00
2019-03-11T09:33:37.269Z,100.00
2019-03-11T09:36:27.008Z,100.00
2019-03-11T09:39:16.720Z,100.00
2019-03-11T09:41:58.787Z,100.00
2019-03-11T09:44:41.284Z,100.00
2019-03-11T09:47:31.084Z,100.00
2019-03-11T09:53:15.599Z,100.00
2019-03-11T09:56:05.557Z,100.00
2019-03-11T09:58:55.310Z,100.00
2019-03-11T10:01:45.227Z,100.00
2019-03-11T10:04:35.127Z,100.00
2019-03-11T10:07:24.903Z,100.00
2019-03-11T10:10:15.497Z,100.00
2019-03-11T10:13:05.360Z,100.00
2019-03-11T10:15:47.444Z,100.00
2019-03-11T10:18:39.183Z,100.00
2019-03-11T10:21:21.217Z,100.00
2019-03-11T10:24:24.235Z,100.00
2019-03-11T10:27:07.120Z,100.00
2019-03-11T10:29:56.853Z,100.00
2019-03-11T10:32:46.713Z,100.00
2019-03-11T10:35:32.882Z,100.00
2019-03-11T10:38:20.343Z,100.00
2019-03-11T10:41:23.481Z,100.00
2019-03-11T10:44:06.077Z,100.00
2019-03-11T10:46:55.929Z,100.00
2019-03-11T10:49:45.701Z,100.00
2019-03-11T10:52:35.399Z,100.00
2019-03-11T10:55:25.229Z,100.00
2019-03-11T10:58:14.937Z,100.00
2019-03-11T11:00:57.860Z,100.00
2019-03-11T11:03:47.655Z,100.00
2019-03-11T11:06:30.496Z,100.00
2019-03-11T11:09:12.689Z,100.00
2019-03-11T11:12:02.553Z,100.00
2019-03-11T11:14:52.323Z,100.00
2019-03-11T11:17:36.095Z,100.00
2019-03-11T11:20:25.857Z,100.00
2019-03-11T11:23:08.677Z,100.00
2019-03-11T11:34:38.283Z,100.00
2019-03-11T11:37:28.047Z,100.00
2019-03-11T11:40:19.846Z,100.00
2019-03-11T11:43:09.606Z,100.00
2019-03-11T11:48:54.255Z,100.00
2019-03-11T11:51:44.137Z,100.00
2019-03-11T11:54:34.034Z,100.00
2019-03-11T11:57:35.757Z,100.00
2019-03-11T12:00:20.274Z,100.00
2019-03-11T12:03:10.073Z,100.00
2019-03-11T12:05:52.524Z,100.00
2019-03-11T12:08:34.839Z,100.00
2019-03-11T12:14:41.850Z,100.00
2019-03-11T12:20:26.794Z,100.00
2019-03-11T12:23:29.973Z,100.00
2019-03-11T12:26:13.016Z,100.00
2019-03-11T12:29:02.857Z,100.00
2019-03-11T12:34:46.764Z,100.00
2019-03-11T12:37:36.498Z,100.00
2019-03-11T12:40:19.194Z,100.00
2019-03-11T12:46:04.137Z,100.00
2019-03-11T12:48:46.207Z,100.00
2019-03-11T12:51:50.086Z,100.00
2019-03-11T12:54:32.338Z,100.00
2019-03-11T12:57:22.143Z,100.00
2019-03-11T13:00:14.271Z,100.00
2019-03-11T13:03:04.082Z,100.00
2019-03-11T13:05:53.858Z,100.00
2019-03-11T13:08:43.582Z,100.00
2019-03-11T13:11:26.259Z,100.00
2019-03-11T13:17:34.335Z,100.00
2019-03-11T13:20:43.430Z,100.00
2019-03-11T13:23:25.744Z,100.00
2019-03-11T13:29:13.264Z,100.00
2019-03-11T13:31:55.694Z,100.00
2019-03-11T13:34:45.685Z,100.00
2019-03-11T13:37:35.519Z,100.00
2019-03-11T13:43:20.274Z,100.00
2019-03-11T13:49:04.674Z,100.00
2019-03-11T13:51:54.492Z,100.00
2019-03-11T13:54:56.084Z,100.00
2019-03-11T13:57:40.509Z,100.00
2019-03-11T14:00:23.098Z,100.00
2019-03-11T14:03:12.944Z,100.00
2019-03-11T14:08:59.045Z,100.00
2019-03-11T14:11:49.011Z,100.00
2019-03-11T14:14:38.726Z,100.00
2019-03-11T14:17:28.566Z,100.00
2019-03-11T14:20:10.940Z,100.00
2019-03-11T14:23:19.808Z,100.00
2019-03-11T14:26:21.598Z,100.00
2019-03-11T14:29:04.178Z,100.00
2019-03-11T14:31:53.947Z,100.00
2019-03-11T14:34:43.992Z,100.00
2019-03-11T14:37:33.761Z,100.00
2019-03-11T14:40:23.605Z,100.00
2019-03-11T14:49:31.813Z,100.00
2019-03-11T14:55:16.330Z,100.00
2019-03-11T14:58:06.169Z,100.00
2019-03-11T15:00:56.024Z,100.00
2019-03-11T15:03:38.377Z,100.00
2019-03-11T15:06:28.144Z,100.00
2019-03-11T15:09:17.991Z,100.00
2019-03-11T15:12:21.148Z,100.00
2019-03-11T15:15:06.168Z,100.00
2019-03-11T15:17:55.987Z,100.00
2019-03-11T15:20:57.737Z,100.00
2019-03-11T15:23:40.249Z,100.00
2019-03-11T15:26:30.059Z,100.00
2019-03-11T15:29:19.804Z,100.00
2019-03-11T15:32:09.611Z,100.00
2019-03-11T15:34:52.400Z,100.00
2019-03-11T15:37:42.213Z,100.00
2019-03-11T15:40:24.341Z,100.00
2019-03-11T15:46:09.681Z,100.00
2019-03-11T15:51:42.111Z,100.00
2019-03-11T15:54:31.905Z,100.00
2019-03-11T15:57:14.725Z,100.00
2019-03-11T16:00:04.693Z,100.00
2019-03-11T16:02:48.325Z,100.00
2019-03-11T16:05:38.051Z,100.00
2019-03-11T16:08:20.737Z,100.00
2019-03-11T16:11:10.481Z,100.00
2019-03-11T16:13:52.999Z,100.00
2019-03-11T16:16:37.389Z,100.00
2019-03-11T16:19:20.207Z,100.00
2019-03-11T16:22:10.077Z,100.00
2019-03-11T16:24:54.244Z,100.00
2019-03-11T16:27:44.071Z,100.00
2019-03-11T16:30:33.893Z,100.00
2019-03-11T16:36:18.310Z,100.00
2019-03-11T16:42:22.988Z,100.00
2019-03-11T16:45:12.980Z,100.00
2019-03-11T16:48:21.871Z,100.00
2019-03-11T16:51:11.652Z,100.00
2019-03-11T16:56:56.192Z,100.00
2019-03-11T16:59:46.047Z,100.00
2019-03-11T17:02:47.719Z,100.00
2019-03-11T17:05:30.641Z,100.00
2019-03-11T17:08:32.463Z,100.00
2019-03-11T17:11:15.412Z,100.00
2019-03-11T17:17:23.422Z,100.00
2019-03-11T17:20:13.415Z,100.00
2019-03-11T17:22:56.362Z,100.00
2019-03-11T17:25:46.122Z,100.00
2019-03-11T17:31:31.564Z,100.00
2019-03-11T17:34:21.310Z,100.00
2019-03-11T17:37:03.489Z,100.00
2019-03-11T17:39:53.258Z,100.00
2019-03-11T17:42:35.570Z,100.00
2019-03-11T17:45:25.322Z,100.00
2019-03-11T17:48:07.468Z,100.00
2019-03-11T17:50:57.179Z,100.00
2019-03-11T17:53:39.472Z,100.00
2019-03-11T17:56:29.328Z,100.00
2019-03-11T18:04:45.841Z,100.00
2019-03-11T18:07:35.591Z,100.00
2019-03-11T18:10:18.154Z,100.00
2019-03-11T18:13:07.941Z,100.00
2019-03-11T18:15:51.984Z,100.00
2019-03-11T18:18:34.106Z,100.00
2019-03-11T18:21:23.926Z,100.00
2019-03-11T18:24:13.757Z,100.00
2019-03-11T18:27:22.560Z,100.00
2019-03-11T18:30:14.628Z,100.00
2019-03-11T18:32:56.934Z,100.00
2019-03-11T18:35:59.642Z,100.00
2019-03-11T18:38:42.409Z,100.00
2019-03-11T18:41:34.214Z,100.00
2019-03-11T18:44:16.620Z,100.00
2019-03-11T18:47:06.415Z,100.00
2019-03-11T18:49:48.820Z,100.00
2019-03-11T18:52:38.529Z,100.00
2019-03-11T18:55:28.260Z,100.00
2019-03-11T18:58:10.787Z,100.00
2019-03-11T19:01:12.556Z,100.00
2019-03-11T19:03:55.241Z,100.00
2019-03-11T19:09:49.535Z,100.00
2019-03-11T19:15:34.783Z,100.00
2019-03-11T19:20:44.898Z,100.00
2019-03-11T19:23:27.324Z,100.00
2019-03-11T19:26:17.211Z,100.00
2019-03-11T19:29:18.636Z,100.00
2019-03-11T19:32:01.407Z,100.00
2019-03-11T19:34:51.313Z,100.00
2019-03-11T19:37:41.129Z,100.00
2019-03-11T19:43:26.348Z,100.00
2019-03-11T19:46:16.161Z,100.00
2019-03-11T19:49:18.029Z,100.00
2019-03-11T19:52:00.610Z,100.00
2019-03-11T19:58:07.359Z,100.00
2019-03-11T20:03:54.448Z,100.00
2019-03-11T20:06:44.321Z,100.00
2019-03-11T20:12:22.886Z,100.00
2019-03-11T20:14:54.018Z,100.00
2019-03-11T20:17:43.822Z,100.00
2019-03-11T20:20:26.275Z,100.00
2019-03-11T20:29:41.408Z,100.00
2019-03-11T20:32:31.433Z,100.00
2019-03-11T20:35:18.467Z,100.00
2019-03-11T20:38:08.240Z,100.00
2019-03-11T20:40:50.781Z,100.00
2019-03-11T20:43:40.541Z,100.00
2019-03-11T20:46:23.558Z,100.00
2019-03-11T20:49:13.488Z,100.00
2019-03-11T20:51:56.869Z,100.00
2019-03-11T20:54:46.646Z,100.00
2019-03-11T20:57:29.425Z,100.00
2019-03-11T21:00:20.213Z,100.00
2019-03-11T21:03:02.986Z,100.00
2019-03-11T21:05:52.925Z,100.00
2019-03-11T21:08:39.984Z,100.00
2019-03-11T21:11:29.782Z,100.00
2019-03-11T21:14:12.319Z,100.00
2019-03-11T21:17:01.989Z,100.00
2019-03-11T21:19:44.914Z,100.00
2019-03-11T21:22:34.675Z,100.00
2019-03-11T21:25:17.741Z,100.00
2019-03-11T21:28:07.581Z,100.00
2019-03-11T21:30:52.122Z,100.00
2019-03-11T21:34:01.005Z,100.00
2019-03-11T21:36:44.239Z,100.00
2019-03-11T21:42:29.065Z,100.00
2019-03-11T21:45:19.055Z,100.00
2019-03-11T21:48:03.454Z,100.00
2019-03-11T21:50:53.379Z,100.00
2019-03-11T21:53:43.071Z,100.00
2019-03-11T21:56:32.915Z,100.00
2019-03-11T21:59:22.695Z,100.00
2019-03-11T22:02:05.320Z,100.00
2019-03-11T22:04:55.038Z,100.00
2019-03-11T22:07:38.681Z,100.00
2019-03-11T22:10:28.432Z,100.00
2019-03-11T22:13:12.894Z,100.00
2019-03-11T22:16:02.632Z,100.00
2019-03-11T22:21:36.289Z,100.00
2019-03-11T22:24:06.962Z,100.00
2019-03-11T22:26:56.712Z,100.00
2019-03-11T22:29:27.495Z,100.00
2019-03-11T22:32:17.234Z,100.00
2019-03-11T22:35:12.650Z,100.00
2019-03-11T22:37:55.776Z,100.00
2019-03-11T22:40:45.531Z,100.00
2019-03-11T22:43:28.430Z,100.00
2019-03-11T22:46:18.146Z,100.00
2019-03-11T22:49:00.562Z,100.00
2019-03-11T22:51:50.334Z,100.00
2019-03-11T22:54:32.554Z,100.00
2019-03-11T22:57:22.293Z,100.00
2019-03-11T23:00:07.187Z,100.00
2019-03-11T23:02:57.012Z,100.00
2019-03-11T23:05:39.088Z,100.00
2019-03-11T23:08:28.940Z,100.00
2019-03-11T23:11:11.069Z,100.00
2019-03-11T23:17:02.088Z,100.00
2019-03-11T23:19:51.907Z,100.00
2019-03-11T23:22:34.687Z,100.00
2019-03-11T23:25:24.496Z,100.00
2019-03-11T23:28:06.638Z,100.00
2019-03-11T23:30:56.373Z,100.00
2019-03-11T23:33:39.022Z,100.00
2019-03-11T23:36:47.855Z,100.00
2019-03-11T23:39:30.469Z,100.00
2019-03-11T23:45:15.755Z,100.00
2019-03-11T23:48:05.603Z,100.00
2019-03-11T23:50:55.383Z,100.00
2019-03-11T23:54:04.232Z,100.00
2019-03-11T23:56:54.275Z,100.00
2019-03-11T23:59:44.004Z,100.00
